HKE234 VHHH-ZBAD
Flight info
| Callsign | HKE234 |
|---|---|
| Flight time | N/A |
| Altitude | 36000 |
| Route | BEKOL A461 BUBDA W56 ORODO W62 TEKIL G212 BELAX |
| Aircraft | A320/M-SDE3FGHIRWY/LB1 |
Departure
| Time | N/A |
|---|---|
| Airport | Hong Kong International Airport (VHHH) |
Arrival
| Time | 2026-05-01 09:50 |
|---|---|
| Airport | Beijing Daxing International Airport (ZBAD) |
| Time | Latitude | Longitude | Altitude | Speed | Heading |
|---|---|---|---|---|---|
| 2026-05-01 08:30 | 31.85861 | 114.34647 | 35943 ft | 426 kts | 353° |
| 2026-05-01 08:30 | 31.90024 | 114.34772 | 35944 ft | 426 kts | 353° |
| 2026-05-01 08:31 | 31.95957 | 114.34952 | 35943 ft | 425 kts | 353° |
| 2026-05-01 08:31 | 32.01892 | 114.35130 | 35940 ft | 425 kts | 353° |
| 2026-05-01 08:32 | 32.07821 | 114.35310 | 35941 ft | 426 kts | 353° |
| 2026-05-01 08:32 | 32.13748 | 114.35490 | 35943 ft | 427 kts | 353° |
| 2026-05-01 08:33 | 32.19680 | 114.35670 | 35938 ft | 426 kts | 353° |
| 2026-05-01 08:33 | 32.25574 | 114.35868 | 35940 ft | 428 kts | 355° |
| 2026-05-01 08:34 | 32.31547 | 114.36369 | 35939 ft | 430 kts | 356° |
| 2026-05-01 08:34 | 32.37511 | 114.36924 | 35941 ft | 429 kts | 356° |
| 2026-05-01 08:35 | 32.43438 | 114.37468 | 35940 ft | 428 kts | 356° |
| 2026-05-01 08:35 | 32.49368 | 114.38012 | 35938 ft | 429 kts | 356° |
| 2026-05-01 08:36 | 32.55354 | 114.38560 | 35939 ft | 429 kts | 356° |
| 2026-05-01 08:36 | 32.61301 | 114.39105 | 35941 ft | 429 kts | 356° |
| 2026-05-01 08:37 | 32.67237 | 114.39651 | 35943 ft | 430 kts | 356° |
| 2026-05-01 08:37 | 32.73190 | 114.40205 | 35943 ft | 430 kts | 356° |
| 2026-05-01 08:38 | 32.79166 | 114.40763 | 35943 ft | 428 kts | 356° |
| 2026-05-01 08:38 | 32.85087 | 114.41316 | 35938 ft | 428 kts | 356° |
| 2026-05-01 08:39 | 32.91025 | 114.41868 | 35939 ft | 430 kts | 356° |
| 2026-05-01 08:39 | 32.97011 | 114.42429 | 35935 ft | 430 kts | 356° |
| 2026-05-01 08:40 | 33.05899 | 114.43262 | 35932 ft | 429 kts | 356° |
| 2026-05-01 08:40 | 33.11872 | 114.43820 | 35934 ft | 430 kts | 356° |
| 2026-05-01 08:41 | 33.17843 | 114.44383 | 35938 ft | 430 kts | 356° |
| 2026-05-01 08:41 | 33.23810 | 114.44943 | 35939 ft | 429 kts | 356° |
| 2026-05-01 08:42 | 33.29738 | 114.45502 | 35944 ft | 429 kts | 356° |
| 2026-05-01 08:42 | 33.35679 | 114.46060 | 35944 ft | 429 kts | 356° |
| 2026-05-01 08:43 | 33.41662 | 114.46624 | 35950 ft | 429 kts | 356° |
| 2026-05-01 08:43 | 33.47599 | 114.47182 | 35952 ft | 430 kts | 356° |
| 2026-05-01 08:44 | 33.53579 | 114.47747 | 35953 ft | 430 kts | 356° |
| 2026-05-01 08:44 | 33.59555 | 114.48311 | 35956 ft | 431 kts | 356° |
| 2026-05-01 08:45 | 33.65518 | 114.48873 | 35955 ft | 429 kts | 356° |
| 2026-05-01 08:45 | 33.71449 | 114.49425 | 35956 ft | 428 kts | 356° |
| 2026-05-01 08:46 | 33.77394 | 114.49984 | 35953 ft | 429 kts | 356° |
| 2026-05-01 08:46 | 33.83315 | 114.50537 | 35955 ft | 429 kts | 356° |
| 2026-05-01 08:47 | 33.89281 | 114.51099 | 35953 ft | 429 kts | 356° |
| 2026-05-01 08:47 | 33.95226 | 114.51659 | 35955 ft | 430 kts | 356° |
| 2026-05-01 08:48 | 34.01212 | 114.52226 | 35956 ft | 430 kts | 356° |
| 2026-05-01 08:48 | 34.07143 | 114.52786 | 35955 ft | 429 kts | 356° |
| 2026-05-01 08:49 | 34.13126 | 114.53354 | 35954 ft | 430 kts | 356° |
| 2026-05-01 08:49 | 34.19111 | 114.53921 | 35953 ft | 431 kts | 356° |
| 2026-05-01 08:50 | 34.25100 | 114.54488 | 35951 ft | 432 kts | 356° |
| 2026-05-01 08:50 | 34.31063 | 114.55057 | 35953 ft | 432 kts | 356° |
| 2026-05-01 08:51 | 34.37041 | 114.55625 | 35950 ft | 432 kts | 356° |
| 2026-05-01 08:51 | 34.43026 | 114.56196 | 35949 ft | 432 kts | 356° |
| 2026-05-01 08:52 | 34.49020 | 114.56768 | 35946 ft | 433 kts | 356° |
| 2026-05-01 08:52 | 34.55031 | 114.57336 | 35947 ft | 433 kts | 356° |
| 2026-05-01 08:53 | 34.61035 | 114.57906 | 35949 ft | 434 kts | 356° |
| 2026-05-01 08:53 | 34.67049 | 114.58476 | 35949 ft | 434 kts | 356° |
| 2026-05-01 08:54 | 34.73085 | 114.59053 | 35945 ft | 434 kts | 356° |
| 2026-05-01 08:54 | 34.79106 | 114.59624 | 35941 ft | 436 kts | 356° |
| 2026-05-01 08:55 | 34.85146 | 114.60203 | 35939 ft | 435 kts | 356° |
| 2026-05-01 08:55 | 34.91195 | 114.60780 | 35937 ft | 435 kts | 356° |
| 2026-05-01 08:56 | 34.97230 | 114.61357 | 35936 ft | 435 kts | 356° |
| 2026-05-01 08:56 | 35.03251 | 114.61935 | 35937 ft | 437 kts | 356° |
| 2026-05-01 08:57 | 35.09303 | 114.62516 | 35934 ft | 438 kts | 356° |
| 2026-05-01 08:57 | 35.15405 | 114.63100 | 35932 ft | 439 kts | 356° |
| 2026-05-01 08:58 | 35.21488 | 114.63689 | 35932 ft | 437 kts | 356° |
| 2026-05-01 08:58 | 35.27536 | 114.64274 | 35930 ft | 436 kts | 356° |
| 2026-05-01 08:59 | 35.33611 | 114.64859 | 35929 ft | 438 kts | 356° |
| 2026-05-01 08:59 | 35.39653 | 114.65443 | 35927 ft | 437 kts | 357° |
| 2026-05-01 09:00 | 35.45735 | 114.66032 | 35930 ft | 439 kts | 357° |
| 2026-05-01 09:00 | 35.51808 | 114.66621 | 35935 ft | 438 kts | 357° |
| 2026-05-01 09:01 | 35.57877 | 114.67210 | 35938 ft | 438 kts | 357° |
| 2026-05-01 09:01 | 35.63969 | 114.67804 | 35940 ft | 438 kts | 357° |
| 2026-05-01 09:02 | 35.70042 | 114.68398 | 35941 ft | 438 kts | 357° |
| 2026-05-01 09:02 | 35.76140 | 114.68990 | 35938 ft | 439 kts | 357° |
| 2026-05-01 09:03 | 35.82223 | 114.69585 | 35936 ft | 440 kts | 356° |
| 2026-05-01 09:03 | 35.88316 | 114.70182 | 35937 ft | 440 kts | 356° |
| 2026-05-01 09:04 | 35.94446 | 114.70782 | 35937 ft | 441 kts | 356° |
| 2026-05-01 09:04 | 36.00554 | 114.71383 | 35935 ft | 440 kts | 356° |
| 2026-05-01 09:05 | 36.06631 | 114.71980 | 35935 ft | 441 kts | 356° |
| 2026-05-01 09:05 | 36.12726 | 114.72576 | 35933 ft | 440 kts | 357° |
| 2026-05-01 09:06 | 36.18839 | 114.73175 | 35933 ft | 442 kts | 356° |
| 2026-05-01 09:06 | 36.24964 | 114.73776 | 35933 ft | 441 kts | 356° |
| 2026-05-01 09:07 | 36.31062 | 114.74377 | 35931 ft | 440 kts | 356° |
| 2026-05-01 09:07 | 36.37193 | 114.74904 | 35920 ft | 438 kts | 353° |
| 2026-05-01 09:08 | 36.43209 | 114.74791 | 35918 ft | 434 kts | 350° |
| 2026-05-01 09:08 | 36.49244 | 114.74499 | 35915 ft | 434 kts | 349° |
| 2026-05-01 09:09 | 36.55255 | 114.74216 | 35910 ft | 434 kts | 350° |
| 2026-05-01 09:09 | 36.61327 | 114.73936 | 35915 ft | 434 kts | 350° |
| 2026-05-01 09:10 | 36.67323 | 114.73660 | 35919 ft | 435 kts | 350° |
| 2026-05-01 09:10 | 36.73444 | 114.73782 | 35913 ft | 443 kts | 358° |
| 2026-05-01 09:11 | 36.79582 | 114.75104 | 35916 ft | 454 kts | 7° |
| 2026-05-01 09:11 | 36.85549 | 114.77679 | 35918 ft | 462 kts | 17° |
| 2026-05-01 09:12 | 36.91392 | 114.81062 | 35915 ft | 463 kts | 18° |
| 2026-05-01 09:12 | 36.97208 | 114.84496 | 35918 ft | 464 kts | 18° |
| 2026-05-01 09:13 | 37.03072 | 114.87933 | 35920 ft | 463 kts | 18° |
| 2026-05-01 09:13 | 37.08877 | 114.91335 | 35909 ft | 463 kts | 18° |
| 2026-05-01 09:14 | 37.14688 | 114.94739 | 35906 ft | 462 kts | 18° |
| 2026-05-01 09:14 | 37.20521 | 114.98162 | 35894 ft | 463 kts | 18° |
| 2026-05-01 09:15 | 37.26339 | 115.01578 | 35897 ft | 462 kts | 18° |
| 2026-05-01 09:15 | 37.32161 | 115.05006 | 35887 ft | 463 kts | 18° |
| 2026-05-01 09:16 | 37.37955 | 115.08421 | 35889 ft | 463 kts | 17° |
| 2026-05-01 09:17 | 37.46711 | 115.13597 | 35882 ft | 463 kts | 17° |
| 2026-05-01 09:17 | 37.55381 | 115.18729 | 35883 ft | 461 kts | 17° |
| 2026-05-01 09:18 | 37.62963 | 115.23228 | 35889 ft | 460 kts | 17° |
| 2026-05-01 09:19 | 37.71655 | 115.28392 | 35888 ft | 462 kts | 17° |
| 2026-05-01 09:20 | 37.80552 | 115.32265 | 35888 ft | 442 kts | 1° |
| 2026-05-01 09:20 | 37.86590 | 115.33003 | 35879 ft | 430 kts | 350° |
| 2026-05-01 09:21 | 37.92473 | 115.32463 | 35881 ft | 422 kts | 344° |
| 2026-05-01 09:21 | 38.01187 | 115.31171 | 35882 ft | 421 kts | 344° |
| 2026-05-01 09:22 | 38.12822 | 115.29494 | 35878 ft | 421 kts | 343° |
| 2026-05-01 09:23 | 38.21516 | 115.28212 | 35881 ft | 417 kts | 343° |
| 2026-05-01 09:24 | 38.30138 | 115.26936 | 35879 ft | 417 kts | 344° |
| 2026-05-01 09:25 | 38.41673 | 115.25221 | 35881 ft | 418 kts | 343° |
| 2026-05-01 09:26 | 38.50324 | 115.24023 | 35606 ft | 421 kts | 349° |
| 2026-05-01 09:26 | 38.56225 | 115.25173 | 35055 ft | 443 kts | 9° |
| 2026-05-01 09:26 | 38.59098 | 115.26777 | 34498 ft | 456 kts | 20° |
| 2026-05-01 09:27 | 38.64031 | 115.32025 | 33588 ft | 470 kts | 44° |
| 2026-05-01 09:27 | 38.65870 | 115.35487 | 33120 ft | 476 kts | 56° |
| 2026-05-01 09:27 | 38.67328 | 115.39325 | 32654 ft | 476 kts | 60° |
| 2026-05-01 09:28 | 38.68678 | 115.43262 | 32188 ft | 473 kts | 61° |
| 2026-05-01 09:28 | 38.69989 | 115.47047 | 31756 ft | 469 kts | 60° |
| 2026-05-01 09:28 | 38.71360 | 115.50845 | 31312 ft | 464 kts | 58° |
| 2026-05-01 09:28 | 38.72837 | 115.54464 | 30888 ft | 457 kts | 55° |
| 2026-05-01 09:29 | 38.76044 | 115.61422 | 30009 ft | 450 kts | 53° |
| 2026-05-01 09:29 | 38.77625 | 115.64802 | 29590 ft | 447 kts | 53° |
| 2026-05-01 09:30 | 38.80785 | 115.71597 | 28713 ft | 441 kts | 54° |
| 2026-05-01 09:30 | 38.82350 | 115.74984 | 28320 ft | 437 kts | 55° |
| 2026-05-01 09:30 | 38.85403 | 115.81613 | 27551 ft | 429 kts | 54° |
| 2026-05-01 09:31 | 38.86888 | 115.84838 | 27189 ft | 424 kts | 55° |
| 2026-05-01 09:31 | 38.88385 | 115.88097 | 26805 ft | 420 kts | 55° |
| 2026-05-01 09:31 | 38.91316 | 115.94488 | 26047 ft | 412 kts | 55° |
| 2026-05-01 09:32 | 38.92749 | 115.97615 | 25659 ft | 408 kts | 55° |
| 2026-05-01 09:32 | 38.95595 | 116.03838 | 24894 ft | 401 kts | 55° |
| 2026-05-01 09:32 | 38.97014 | 116.06949 | 24345 ft | 402 kts | 55° |
| 2026-05-01 09:33 | 38.98450 | 116.10091 | 23502 ft | 412 kts | 56° |
| 2026-05-01 09:33 | 38.99969 | 116.13279 | 22602 ft | 419 kts | 50° |
| 2026-05-01 09:33 | 39.04749 | 116.17183 | 20661 ft | 415 kts | 5° |
| 2026-05-01 09:34 | 39.07573 | 116.17203 | 19875 ft | 410 kts | 349° |
| 2026-05-01 09:34 | 39.10389 | 116.16706 | 19332 ft | 407 kts | 348° |
| 2026-05-01 09:34 | 39.15960 | 116.15779 | 18165 ft | 403 kts | 349° |
| 2026-05-01 09:35 | 39.18741 | 116.15341 | 17585 ft | 401 kts | 349° |
| 2026-05-01 09:35 | 39.24256 | 116.14494 | 16503 ft | 395 kts | 350° |
| 2026-05-01 09:35 | 39.26969 | 116.14075 | 15982 ft | 392 kts | 350° |
| 2026-05-01 09:36 | 39.29652 | 116.13663 | 15469 ft | 389 kts | 351° |
| 2026-05-01 09:36 | 39.32339 | 116.13252 | 14922 ft | 386 kts | 351° |
| 2026-05-01 09:36 | 39.34972 | 116.12849 | 14395 ft | 384 kts | 351° |
| 2026-05-01 09:36 | 39.37610 | 116.12442 | 13889 ft | 381 kts | 351° |
| 2026-05-01 09:37 | 39.40226 | 116.12040 | 13387 ft | 378 kts | 351° |
| 2026-05-01 09:37 | 39.45402 | 116.11242 | 12331 ft | 373 kts | 351° |
| 2026-05-01 09:37 | 39.47972 | 116.10849 | 11780 ft | 371 kts | 351° |
| 2026-05-01 09:38 | 39.53031 | 116.10075 | 11022 ft | 353 kts | 351° |
| 2026-05-01 09:38 | 39.55423 | 116.09714 | 10468 ft | 342 kts | 351° |
| 2026-05-01 09:38 | 39.57723 | 116.09365 | 10128 ft | 323 kts | 351° |
| 2026-05-01 09:39 | 39.62007 | 116.08710 | 9549 ft | 306 kts | 351° |
| 2026-05-01 09:39 | 39.64116 | 116.08385 | 9158 ft | 306 kts | 351° |
| 2026-05-01 09:39 | 39.66210 | 116.08060 | 8798 ft | 306 kts | 351° |
| 2026-05-01 09:40 | 39.68321 | 116.07735 | 8434 ft | 301 kts | 351° |
| 2026-05-01 09:40 | 39.72350 | 116.07117 | 7766 ft | 283 kts | 352° |
| 2026-05-01 09:40 | 39.74313 | 116.07256 | 7401 ft | 286 kts | 19° |
| 2026-05-01 09:41 | 39.75948 | 116.08651 | 7079 ft | 284 kts | 51° |
| 2026-05-01 09:41 | 39.77082 | 116.13381 | 6441 ft | 279 kts | 87° |
| 2026-05-01 09:41 | 39.77260 | 116.15888 | 6152 ft | 279 kts | 87° |
| 2026-05-01 09:42 | 39.77455 | 116.18330 | 6031 ft | 271 kts | 86° |
| 2026-05-01 09:42 | 39.77665 | 116.20717 | 5987 ft | 259 kts | 85° |
| 2026-05-01 09:42 | 39.78079 | 116.25271 | 5463 ft | 255 kts | 85° |
| 2026-05-01 09:43 | 39.78476 | 116.29729 | 4765 ft | 244 kts | 85° |
| 2026-05-01 09:43 | 39.78664 | 116.31891 | 4391 ft | 238 kts | 88° |
| 2026-05-01 09:43 | 39.78441 | 116.33947 | 3994 ft | 229 kts | 122° |
| 2026-05-01 09:44 | 39.75950 | 116.35853 | 3918 ft | 208 kts | 173° |
| 2026-05-01 09:44 | 39.74546 | 116.36043 | 3887 ft | 196 kts | 173° |
| 2026-05-01 09:44 | 39.73230 | 116.36228 | 3947 ft | 185 kts | 173° |
| 2026-05-01 09:45 | 39.71960 | 116.36417 | 3952 ft | 185 kts | 173° |
| 2026-05-01 09:45 | 39.69356 | 116.36823 | 3421 ft | 189 kts | 172° |
| 2026-05-01 09:45 | 39.68053 | 116.37030 | 3170 ft | 186 kts | 172° |
| 2026-05-01 09:46 | 39.66793 | 116.37230 | 2930 ft | 182 kts | 172° |
| 2026-05-01 09:46 | 39.65529 | 116.37430 | 2691 ft | 182 kts | 171° |
| 2026-05-01 09:46 | 39.64295 | 116.37626 | 2453 ft | 176 kts | 171° |
| 2026-05-01 09:46 | 39.63106 | 116.37813 | 2223 ft | 168 kts | 171° |
| 2026-05-01 09:47 | 39.61972 | 116.37992 | 2024 ft | 157 kts | 171° |
| 2026-05-01 09:47 | 39.60918 | 116.38158 | 1825 ft | 148 kts | 170° |
| 2026-05-01 09:47 | 39.59924 | 116.38316 | 1641 ft | 138 kts | 170° |
| 2026-05-01 09:47 | 39.59003 | 116.38461 | 1459 ft | 133 kts | 170° |
| 2026-05-01 09:48 | 39.58079 | 116.38609 | 1301 ft | 132 kts | 169° |
| 2026-05-01 09:48 | 39.57160 | 116.38754 | 1133 ft | 133 kts | 169° |
| 2026-05-01 09:48 | 39.56244 | 116.38899 | 962 ft | 133 kts | 169° |
| 2026-05-01 09:48 | 39.55323 | 116.39045 | 788 ft | 133 kts | 169° |
| 2026-05-01 09:49 | 39.54405 | 116.39190 | 609 ft | 133 kts | 169° |
| 2026-05-01 09:49 | 39.53486 | 116.39339 | 445 ft | 133 kts | 168° |
| 2026-05-01 09:49 | 39.52558 | 116.39481 | 278 ft | 133 kts | 169° |
| 2026-05-01 09:49 | 39.51630 | 116.39631 | 134 ft | 134 kts | 168° |
| 2026-05-01 09:50 | 39.50764 | 116.39784 | 90 ft | 105 kts | 173° |
| 2026-05-01 09:50 | 39.50209 | 116.39861 | 90 ft | 54 kts | 172° |
| 2026-05-01 09:50 | 39.49905 | 116.39912 | 90 ft | 41 kts | 173° |
| 2026-05-01 09:50 | 39.49664 | 116.39987 | 90 ft | 30 kts | 153° |
| 2026-05-01 09:51 | 39.49495 | 116.40128 | 90 ft | 27 kts | 144° |
| 2026-05-01 09:51 | 39.49330 | 116.40223 | 90 ft | 25 kts | 172° |
| 2026-05-01 09:51 | 39.49221 | 116.40292 | 90 ft | 15 kts | 99° |
| 2026-05-01 09:51 | 39.49236 | 116.40429 | 90 ft | 15 kts | 62° |
| 2026-05-01 09:52 | 39.49330 | 116.40452 | 90 ft | 15 kts | 352° |
| 2026-05-01 09:52 | 39.49435 | 116.40436 | 90 ft | 15 kts | 353° |
| 2026-05-01 09:52 | 39.49543 | 116.40419 | 90 ft | 15 kts | 352° |
| 2026-05-01 09:52 | 39.49653 | 116.40402 | 90 ft | 15 kts | 353° |
| 2026-05-01 09:53 | 39.49763 | 116.40383 | 90 ft | 16 kts | 353° |
| 2026-05-01 09:53 | 39.49888 | 116.40365 | 90 ft | 20 kts | 353° |
| 2026-05-01 09:53 | 39.50042 | 116.40341 | 90 ft | 19 kts | 352° |
| 2026-05-01 09:53 | 39.50127 | 116.40424 | 90 ft | 17 kts | 82° |
| 2026-05-01 09:54 | 39.50151 | 116.40578 | 90 ft | 17 kts | 53° |
| 2026-05-01 09:54 | 39.50250 | 116.40592 | 90 ft | 13 kts | 352° |
| 2026-05-01 09:54 | 39.50348 | 116.40578 | 90 ft | 14 kts | 352° |
| 2026-05-01 09:54 | 39.50447 | 116.40560 | 90 ft | 14 kts | 353° |
| 2026-05-01 09:55 | 39.50520 | 116.40555 | 90 ft | 7 kts | 6° |
| 2026-05-01 09:55 | 39.50560 | 116.40565 | 90 ft | 0 kts | 11° |
| 2026-05-01 09:55 | 39.50564 | 116.40566 | 90 ft | 0 kts | 9° |